Clearwater, Washington
Current Conditions -  °F | °C
As of 11:53 PM on Sunday 23 Nov 2014 (Local Time) from KUIL Reporting Station
Clear Clear  
Wind Chill: 39°   Ceiling: Unl
Heat Index: 42°   Visibility: 7mi
Dew Point: 42°   Wind: 5mph
Humidity: 100%   Direction: 90°E
Pressure: 30.32"   Gusts: NA
Location:  47.9519°N, 124.29°W
Report Text: KUIL 240753Z AUTO 09004KT 7SM CLR 06/06 A3032 RMK AO2 SLP268 T00560056 401280044
Loading
Personal Weather Stations






























Interactive Weather Map New forecast layout! Learn more

10-Day Weather Forecast

Advertisements
Track Severe Weather on mobile